createdAt,value
2023-02-14T00:01:39.824Z,15.00
2023-02-14T00:04:13.527Z,15.90
2023-02-14T00:06:47.086Z,16.20
2023-02-14T00:09:20.592Z,16.80
2023-02-14T00:11:53.428Z,15.90
2023-02-14T00:14:44.184Z,16.10
2023-02-14T00:17:16.996Z,16.00
2023-02-14T00:19:51.092Z,15.90
2023-02-14T00:22:24.277Z,15.50
2023-02-14T00:24:58.389Z,16.10
2023-02-14T00:27:31.314Z,15.50
2023-02-14T00:30:09.132Z,16.30
2023-02-14T00:32:44.690Z,15.90
2023-02-14T00:35:17.385Z,16.30
2023-02-14T00:37:50.523Z,15.40
2023-02-14T00:40:26.942Z,15.00
2023-02-14T00:43:02.232Z,14.90
2023-02-14T00:45:35.457Z,14.30
2023-02-14T00:48:08.579Z,15.10
2023-02-14T00:50:42.126Z,14.40
2023-02-14T00:53:15.015Z,15.10
2023-02-14T00:55:50.208Z,13.70
2023-02-14T00:58:23.037Z,13.70
2023-02-14T01:00:56.752Z,14.60
2023-02-14T01:03:30.246Z,15.40
2023-02-14T01:06:03.293Z,16.50
2023-02-14T01:08:36.222Z,13.90
2023-02-14T01:11:14.142Z,15.60
2023-02-14T01:13:47.170Z,17.30
2023-02-14T01:16:21.947Z,15.20
2023-02-14T01:18:55.503Z,14.90
2023-02-14T01:21:29.712Z,16.60
2023-02-14T01:24:04.104Z,16.40
2023-02-14T01:26:36.918Z,16.40
2023-02-14T01:29:10.049Z,15.60
2023-02-14T01:31:43.681Z,15.70
2023-02-14T01:34:16.623Z,14.90
2023-02-14T01:36:55.284Z,15.90
2023-02-14T01:39:28.111Z,16.40
2023-02-14T01:42:01.343Z,16.90
2023-02-14T01:45:02.228Z,18.00
2023-02-14T01:47:40.869Z,18.10
2023-02-14T01:50:16.060Z,21.70
2023-02-14T01:52:54.590Z,21.00
2023-02-14T01:55:29.115Z,21.60
2023-02-14T01:58:03.411Z,21.90
2023-02-14T02:00:55.334Z,23.30
2023-02-14T02:03:31.543Z,23.30
2023-02-14T02:06:07.270Z,21.30
2023-02-14T02:08:44.555Z,21.10
2023-02-14T02:11:17.439Z,21.50
2023-02-14T02:13:55.727Z,23.80
2023-02-14T02:17:00.053Z,22.70
2023-02-14T02:20:02.486Z,21.40
2023-02-14T02:22:48.259Z,22.10
2023-02-14T02:25:29.201Z,21.20
2023-02-14T02:34:23.055Z,21.50
2023-02-14T02:37:02.589Z,20.80
2023-02-14T02:39:46.721Z,18.70
2023-02-14T02:42:25.720Z,21.40
2023-02-14T02:45:03.409Z,21.40
2023-02-14T02:47:37.810Z,21.10
2023-02-14T02:50:34.320Z,20.70
2023-02-14T02:53:08.972Z,19.30
2023-02-14T02:56:07.122Z,20.10
2023-02-14T02:58:41.365Z,19.80
2023-02-14T03:01:15.707Z,20.00
2023-02-14T03:04:07.842Z,21.10
2023-02-14T03:06:41.332Z,21.90
2023-02-14T03:09:42.061Z,21.40
2023-02-14T03:12:21.591Z,19.70
2023-02-14T03:14:57.976Z,20.00
2023-02-14T03:17:36.046Z,21.30
2023-02-14T03:20:17.759Z,21.60
2023-02-14T03:25:38.576Z,19.50
2023-02-14T03:28:16.403Z,19.50
2023-02-14T03:30:54.740Z,20.70
2023-02-14T03:33:32.100Z,20.70
2023-02-14T03:36:07.727Z,21.30
2023-02-14T03:38:43.684Z,19.40
2023-02-14T03:41:19.460Z,19.40
2023-02-14T03:43:53.411Z,22.00
2023-02-14T03:46:28.509Z,18.90
2023-02-14T03:49:02.926Z,20.40
2023-02-14T03:51:36.285Z,18.80
2023-02-14T03:54:10.879Z,19.50
2023-02-14T03:56:46.159Z,20.30
2023-02-14T03:59:19.510Z,20.10
2023-02-14T04:01:55.044Z,18.40
2023-02-14T04:04:28.816Z,19.90
2023-02-14T04:07:02.231Z,18.50
2023-02-14T04:09:35.417Z,18.90
2023-02-14T04:12:11.723Z,19.80
2023-02-14T04:14:44.708Z,20.90
2023-02-14T04:17:38.050Z,18.90
2023-02-14T04:20:12.055Z,20.00
2023-02-14T04:22:46.505Z,18.50
2023-02-14T04:25:19.410Z,18.50
2023-02-14T04:27:52.370Z,18.60
2023-02-14T04:30:25.767Z,18.90
2023-02-14T04:32:58.608Z,16.50
2023-02-14T04:35:31.342Z,17.70
2023-02-14T04:38:04.595Z,17.80
2023-02-14T04:40:38.541Z,18.20
2023-02-14T04:43:11.702Z,18.50
2023-02-14T04:45:45.769Z,16.40
2023-02-14T04:48:18.770Z,17.30
2023-02-14T04:50:55.815Z,17.90
2023-02-14T04:53:28.537Z,17.50
2023-02-14T04:56:01.404Z,17.40
2023-02-14T04:58:34.513Z,17.00
2023-02-14T05:01:07.908Z,19.20
2023-02-14T05:03:40.744Z,18.00
2023-02-14T05:06:13.850Z,18.00
2023-02-14T05:08:47.081Z,16.70
2023-02-14T05:11:20.454Z,16.90
2023-02-14T05:13:53.096Z,18.00
2023-02-14T05:16:27.960Z,19.40
2023-02-14T05:19:00.821Z,17.40
2023-02-14T05:21:35.147Z,16.60
2023-02-14T05:24:08.168Z,15.70
2023-02-14T05:26:41.677Z,16.30
2023-02-14T05:29:14.888Z,16.40
2023-02-14T05:31:47.681Z,15.90
2023-02-14T05:34:21.814Z,15.50
2023-02-14T05:36:55.248Z,16.00
2023-02-14T05:39:28.523Z,16.00
2023-02-14T05:42:01.591Z,15.30
2023-02-14T05:44:38.801Z,17.60
2023-02-14T05:47:13.167Z,16.60
2023-02-14T05:49:46.525Z,16.40
2023-02-14T05:52:19.133Z,13.70
2023-02-14T05:54:51.853Z,15.70
2023-02-14T05:57:24.845Z,16.10
2023-02-14T05:59:58.118Z,15.60
2023-02-14T06:02:30.982Z,16.70
2023-02-14T06:05:04.194Z,16.10
2023-02-14T06:07:43.424Z,15.70
2023-02-14T06:10:16.251Z,17.20
2023-02-14T06:12:49.398Z,19.30
2023-02-14T06:15:22.970Z,14.40
2023-02-14T06:17:56.355Z,13.70
2023-02-14T06:20:30.568Z,14.50
2023-02-14T06:23:03.805Z,15.30
2023-02-14T06:25:37.491Z,13.40
2023-02-14T06:28:10.802Z,12.70
2023-02-14T06:30:44.616Z,12.70
2023-02-14T06:33:17.774Z,13.30
2023-02-14T06:35:51.269Z,15.90
2023-02-14T06:38:23.899Z,12.30
2023-02-14T06:41:06.350Z,13.80
2023-02-14T06:43:39.270Z,13.70
2023-02-14T06:46:12.171Z,14.30
2023-02-14T06:48:45.576Z,13.50
2023-02-14T06:51:18.708Z,13.00
2023-02-14T06:53:51.894Z,14.30
2023-02-14T06:56:25.191Z,13.50
2023-02-14T06:58:57.968Z,13.30
2023-02-14T07:01:31.618Z,13.40
2023-02-14T07:04:04.462Z,13.20
2023-02-14T07:06:37.968Z,11.40
2023-02-14T07:09:12.049Z,12.20
2023-02-14T07:11:45.010Z,12.30
2023-02-14T07:14:18.573Z,12.30
2023-02-14T07:16:52.006Z,12.10
2023-02-14T07:19:25.257Z,11.60
2023-02-14T07:21:58.693Z,11.30
2023-02-14T07:24:32.080Z,11.80
2023-02-14T07:27:05.111Z,13.30
2023-02-14T07:29:39.245Z,11.20
2023-02-14T07:32:12.606Z,10.70
2023-02-14T07:34:45.760Z,12.30
2023-02-14T07:37:19.350Z,12.70
2023-02-14T07:39:52.438Z,13.80
2023-02-14T07:42:25.990Z,13.20
2023-02-14T07:45:04.796Z,13.10
2023-02-14T07:47:39.936Z,11.70
2023-02-14T07:50:13.143Z,12.20
2023-02-14T07:52:45.952Z,13.50
2023-02-14T07:55:20.198Z,13.20
2023-02-14T07:57:53.595Z,11.00
2023-02-14T08:00:27.055Z,13.00
2023-02-14T08:02:59.836Z,11.90
2023-02-14T08:05:32.753Z,13.30
2023-02-14T08:08:06.115Z,12.60
2023-02-14T08:10:39.304Z,12.00
2023-02-14T08:13:12.159Z,12.80
2023-02-14T08:16:02.427Z,11.70
2023-02-14T08:18:38.524Z,11.80
2023-02-14T08:21:13.506Z,10.60
2023-02-14T08:23:49.936Z,9.80
2023-02-14T08:26:23.316Z,11.10
2023-02-14T08:28:58.732Z,9.80
2023-02-14T08:31:36.034Z,9.20
2023-02-14T08:34:09.829Z,8.50
2023-02-14T08:36:44.025Z,8.20
2023-02-14T08:39:17.352Z,7.50
2023-02-14T08:41:50.723Z,7.60
2023-02-14T08:44:24.055Z,8.10
2023-02-14T08:46:56.925Z,8.00
2023-02-14T08:49:30.137Z,6.90
2023-02-14T08:52:04.276Z,7.80
2023-02-14T08:54:37.483Z,6.10
2023-02-14T08:57:10.880Z,7.20
2023-02-14T08:59:44.210Z,7.10
2023-02-14T09:02:17.584Z,7.00
2023-02-14T09:04:52.207Z,6.30
2023-02-14T09:07:25.209Z,6.80
2023-02-14T09:10:01.491Z,6.30
2023-02-14T09:12:34.908Z,7.30
2023-02-14T09:15:09.556Z,6.40
2023-02-14T09:17:43.350Z,6.60
2023-02-14T09:20:17.713Z,6.10
2023-02-14T09:22:51.823Z,6.80
2023-02-14T09:25:24.909Z,7.00
2023-02-14T09:27:58.064Z,8.30
2023-02-14T09:30:31.125Z,7.80
2023-02-14T09:33:05.635Z,7.40
2023-02-14T09:35:38.701Z,8.50
2023-02-14T09:38:14.681Z,8.80
2023-02-14T09:40:48.919Z,7.90
2023-02-14T09:43:25.456Z,9.30
2023-02-14T09:46:00.028Z,10.90
2023-02-14T09:48:36.459Z,11.40
2023-02-14T09:51:12.593Z,11.30
2023-02-14T09:53:49.498Z,11.10
2023-02-14T09:56:25.053Z,12.20
2023-02-14T09:59:01.669Z,11.80
2023-02-14T10:01:36.859Z,11.70
2023-02-14T10:04:21.522Z,11.30
2023-02-14T10:06:56.436Z,10.90
2023-02-14T10:09:45.297Z,10.30
2023-02-14T10:12:21.613Z,10.60
2023-02-14T10:14:56.083Z,10.20
2023-02-14T10:17:36.451Z,10.40
2023-02-14T10:20:16.145Z,11.60
2023-02-14T10:22:51.665Z,12.50
2023-02-14T10:25:26.334Z,10.80
2023-02-14T10:28:00.009Z,12.10
2023-02-14T10:30:40.062Z,12.80
2023-02-14T10:33:16.289Z,12.80
2023-02-14T10:35:50.228Z,10.60
2023-02-14T10:38:32.165Z,11.40
2023-02-14T10:41:18.237Z,12.20
2023-02-14T10:43:55.322Z,10.80
2023-02-14T10:46:34.761Z,11.40
2023-02-14T10:49:17.937Z,10.80
2023-02-14T10:51:54.472Z,12.00
2023-02-14T10:54:29.274Z,12.20
2023-02-14T10:57:03.727Z,9.60
2023-02-14T10:59:49.616Z,10.60
2023-02-14T11:02:26.000Z,10.60
2023-02-14T11:05:00.867Z,9.30
2023-02-14T11:07:34.266Z,8.00
2023-02-14T11:10:13.272Z,9.60
2023-02-14T11:12:46.120Z,9.20
2023-02-14T11:15:26.021Z,11.90
2023-02-14T11:18:22.714Z,10.50
2023-02-14T11:21:04.505Z,9.60
2023-02-14T11:23:39.382Z,9.50
2023-02-14T11:26:18.699Z,8.30
2023-02-14T11:28:54.897Z,10.50
2023-02-14T11:31:36.122Z,10.40
2023-02-14T11:34:29.640Z,9.10
2023-02-14T11:37:03.870Z,8.80
2023-02-14T11:39:38.616Z,8.30
2023-02-14T11:42:13.693Z,8.20
2023-02-14T11:44:59.808Z,6.60
2023-02-14T11:47:33.539Z,6.70
2023-02-14T11:50:11.052Z,6.60
2023-02-14T11:52:53.997Z,8.10
2023-02-14T11:55:30.323Z,5.50
2023-02-14T11:58:03.369Z,5.50
2023-02-14T12:00:38.215Z,7.20
2023-02-14T12:03:16.924Z,6.40
2023-02-14T12:05:50.381Z,7.80
2023-02-14T12:08:26.774Z,8.50
2023-02-14T12:11:07.540Z,8.60
2023-02-14T12:13:40.522Z,8.80
2023-02-14T12:16:27.386Z,8.80
2023-02-14T12:19:04.642Z,9.60
2023-02-14T12:21:48.049Z,8.50
2023-02-14T12:24:25.374Z,8.60
2023-02-14T12:27:07.458Z,7.20
2023-02-14T12:32:23.398Z,7.80
2023-02-14T12:35:02.056Z,8.40
2023-02-14T12:37:48.722Z,7.90
2023-02-14T12:40:27.451Z,7.00
2023-02-14T12:43:13.473Z,6.60
2023-02-14T12:45:56.509Z,6.00
2023-02-14T12:48:35.338Z,5.20
2023-02-14T12:51:09.346Z,6.40
2023-02-14T12:53:54.956Z,5.90
2023-02-14T12:56:38.203Z,5.00
2023-02-14T12:59:18.542Z,6.40
2023-02-14T13:02:22.106Z,5.80
2023-02-14T13:05:01.799Z,5.10
2023-02-14T13:07:42.979Z,5.50
2023-02-14T13:10:20.884Z,5.10
2023-02-14T13:13:00.695Z,4.80
2023-02-14T13:15:36.806Z,5.00
2023-02-14T13:18:13.504Z,5.80
2023-02-14T13:20:54.439Z,5.50
2023-02-14T13:23:33.271Z,6.00
2023-02-14T13:26:08.054Z,5.40
2023-02-14T13:28:42.629Z,5.90
2023-02-14T13:31:15.392Z,6.00
2023-02-14T13:33:50.063Z,6.10
2023-02-14T13:36:22.827Z,5.10
2023-02-14T13:38:56.480Z,4.60
2023-02-14T13:41:30.305Z,4.70
2023-02-14T13:44:06.227Z,5.50
2023-02-14T13:46:52.662Z,5.50
2023-02-14T13:49:35.010Z,5.50
2023-02-14T13:52:08.625Z,5.50
2023-02-14T13:54:47.628Z,5.80
2023-02-14T13:57:34.276Z,5.80
2023-02-14T14:00:47.292Z,6.40
2023-02-14T14:03:56.840Z,5.40
2023-02-14T14:06:29.688Z,6.40
2023-02-14T14:09:06.237Z,6.60
2023-02-14T14:12:00.890Z,6.00
2023-02-14T14:14:38.173Z,5.80
2023-02-14T14:17:27.967Z,5.70
2023-02-14T14:20:01.260Z,5.50
2023-02-14T14:22:36.166Z,6.30
2023-02-14T14:25:12.521Z,6.20
2023-02-14T14:27:47.623Z,6.30
2023-02-14T14:30:23.384Z,6.10
2023-02-14T14:32:56.698Z,6.10
2023-02-14T14:35:29.803Z,6.00
2023-02-14T14:38:04.369Z,6.60
2023-02-14T14:40:39.210Z,6.80
2023-02-14T14:43:16.177Z,5.80
2023-02-14T14:45:53.192Z,5.90
2023-02-14T14:48:31.908Z,5.90
2023-02-14T14:51:04.966Z,5.60
2023-02-14T14:53:42.323Z,5.80
2023-02-14T14:56:19.242Z,6.30
2023-02-14T14:58:52.278Z,6.50
2023-02-14T15:01:37.412Z,5.60
2023-02-14T15:04:17.373Z,5.90
2023-02-14T15:06:51.409Z,5.70
2023-02-14T15:09:25.642Z,6.10
2023-02-14T15:12:19.474Z,6.80
2023-02-14T15:14:54.922Z,5.10
2023-02-14T15:17:29.046Z,8.20
2023-02-14T15:20:03.762Z,5.20
2023-02-14T15:22:45.807Z,6.50
2023-02-14T15:25:22.253Z,5.60
2023-02-14T15:27:55.033Z,6.40
2023-02-14T15:30:34.134Z,5.70
2023-02-14T15:33:07.943Z,6.40
2023-02-14T15:35:42.798Z,5.50
2023-02-14T15:38:16.024Z,6.60
2023-02-14T15:40:48.961Z,5.90
2023-02-14T15:43:30.631Z,5.90
2023-02-14T15:46:15.461Z,6.70
2023-02-14T15:48:48.397Z,7.00
2023-02-14T15:51:22.616Z,6.20
2023-02-14T15:53:58.497Z,6.60
2023-02-14T15:56:31.716Z,7.30
2023-02-14T15:59:07.285Z,5.90
2023-02-14T16:01:40.208Z,6.70
2023-02-14T16:04:13.454Z,5.90
2023-02-14T16:07:05.174Z,6.00
2023-02-14T16:09:38.850Z,7.20
2023-02-14T16:12:32.960Z,5.80
2023-02-14T16:15:18.278Z,6.90
2023-02-14T16:17:51.667Z,5.80
2023-02-14T16:20:31.341Z,5.60
2023-02-14T16:23:24.838Z,6.50
2023-02-14T16:25:58.780Z,6.10
2023-02-14T16:28:32.843Z,7.00
2023-02-14T16:31:10.479Z,5.90
2023-02-14T16:33:43.317Z,6.70
2023-02-14T16:36:21.322Z,6.50
2023-02-14T16:38:54.654Z,6.40
2023-02-14T16:41:29.098Z,6.40
2023-02-14T16:44:01.918Z,6.90
2023-02-14T16:46:36.609Z,6.40
2023-02-14T16:49:09.669Z,7.20
2023-02-14T16:51:44.121Z,8.60
2023-02-14T16:54:19.580Z,8.40
2023-02-14T16:56:55.357Z,7.20
2023-02-14T16:59:28.762Z,8.60
2023-02-14T17:02:02.669Z,8.50
2023-02-14T17:04:36.162Z,9.40
2023-02-14T17:07:09.326Z,7.90
2023-02-14T17:09:45.051Z,10.30
2023-02-14T17:12:20.130Z,7.50
2023-02-14T17:14:57.733Z,8.20
2023-02-14T17:17:31.235Z,8.00
2023-02-14T17:20:04.963Z,13.30
2023-02-14T17:22:38.245Z,15.20
2023-02-14T17:25:11.654Z,13.50
2023-02-14T17:27:46.504Z,12.00
2023-02-14T17:30:20.533Z,8.00
2023-02-14T17:32:54.062Z,7.80
2023-02-14T17:35:27.123Z,7.20
2023-02-14T17:38:01.059Z,7.70
2023-02-14T17:40:34.621Z,5.60
2023-02-14T17:43:07.885Z,6.80
2023-02-14T17:45:41.239Z,5.60
2023-02-14T17:48:16.042Z,6.80
2023-02-14T17:50:49.818Z,6.90
2023-02-14T17:53:22.889Z,7.10
2023-02-14T17:55:55.996Z,8.30
2023-02-14T17:58:29.107Z,8.90
2023-02-14T18:01:06.409Z,8.60
2023-02-14T18:03:39.609Z,8.40
2023-02-14T18:06:14.277Z,9.40
2023-02-14T18:08:49.945Z,8.70
2023-02-14T18:11:23.635Z,7.90
2023-02-14T18:13:58.399Z,9.10
2023-02-14T18:16:31.641Z,8.30
2023-02-14T18:19:06.628Z,9.40
2023-02-14T18:21:41.502Z,9.00
2023-02-14T18:24:17.702Z,8.70
2023-02-14T18:26:50.991Z,8.00
2023-02-14T18:29:23.580Z,8.80
2023-02-14T18:31:58.298Z,7.90
2023-02-14T18:34:32.790Z,10.70
2023-02-14T18:37:06.436Z,10.30
2023-02-14T18:39:39.229Z,11.50
2023-02-14T18:42:11.983Z,7.50
2023-02-14T18:44:45.814Z,8.60
2023-02-14T18:47:18.691Z,10.30
2023-02-14T18:49:51.365Z,9.50
2023-02-14T18:52:24.755Z,9.40
2023-02-14T18:55:00.166Z,8.30
2023-02-14T18:57:33.769Z,9.70
2023-02-14T19:00:12.213Z,10.50
2023-02-14T19:02:47.721Z,10.70
2023-02-14T19:05:20.561Z,9.30
2023-02-14T19:07:58.503Z,10.20
2023-02-14T19:10:31.570Z,11.10
2023-02-14T19:13:04.300Z,12.00
2023-02-14T19:15:37.975Z,10.70
2023-02-14T19:18:11.183Z,10.50
2023-02-14T19:20:43.997Z,10.50
2023-02-14T19:23:17.330Z,11.90
2023-02-14T19:25:50.036Z,10.70
2023-02-14T19:28:23.150Z,10.70
2023-02-14T19:30:56.288Z,11.40
2023-02-14T19:33:29.405Z,12.20
2023-02-14T19:36:07.821Z,11.60
2023-02-14T19:38:40.652Z,10.50
2023-02-14T19:41:17.930Z,11.30
2023-02-14T19:43:51.467Z,10.50
2023-02-14T19:46:24.499Z,10.40
2023-02-14T19:48:58.548Z,9.90
2023-02-14T19:51:32.459Z,8.20
2023-02-14T19:54:07.376Z,10.90
2023-02-14T19:56:42.232Z,9.70
2023-02-14T19:59:20.427Z,13.10
2023-02-14T20:01:53.818Z,9.40
2023-02-14T20:04:27.662Z,9.50
2023-02-14T20:07:00.557Z,9.50
2023-02-14T20:09:33.762Z,9.70
2023-02-14T20:12:09.231Z,9.00
2023-02-14T20:14:50.783Z,7.80
2023-02-14T20:17:27.098Z,7.10
2023-02-14T20:20:00.124Z,6.50
2023-02-14T20:22:33.363Z,6.50
2023-02-14T20:25:08.015Z,5.20
2023-02-14T20:27:42.115Z,5.10
2023-02-14T20:30:21.065Z,5.00
2023-02-14T20:32:57.558Z,6.10
2023-02-14T20:35:34.597Z,4.90
2023-02-14T20:38:08.749Z,5.50
2023-02-14T20:40:44.753Z,6.10
2023-02-14T20:43:19.468Z,5.40
2023-02-14T20:45:52.353Z,6.10
2023-02-14T20:48:26.190Z,5.20
2023-02-14T20:50:59.626Z,4.60
2023-02-14T20:53:35.643Z,5.70
2023-02-14T20:56:08.833Z,6.20
2023-02-14T20:58:41.611Z,4.90
2023-02-14T21:01:15.697Z,5.10
2023-02-14T21:03:50.848Z,5.60
2023-02-14T21:06:24.927Z,4.70
2023-02-14T21:08:59.231Z,4.10
2023-02-14T21:11:32.077Z,5.20
2023-02-14T21:14:05.345Z,5.10
2023-02-14T21:16:39.998Z,4.90
2023-02-14T21:19:13.145Z,6.50
2023-02-14T21:21:46.861Z,5.60
2023-02-14T21:24:19.936Z,5.40
2023-02-14T21:26:54.047Z,4.80
2023-02-14T21:29:27.111Z,5.40
2023-02-14T21:32:02.478Z,5.90
2023-02-14T21:34:38.456Z,5.40
2023-02-14T21:37:11.361Z,5.50
2023-02-14T21:39:45.829Z,5.20
2023-02-14T21:42:19.113Z,5.30
2023-02-14T21:45:09.978Z,5.00
2023-02-14T21:47:42.760Z,4.50
2023-02-14T21:50:34.497Z,5.00
2023-02-14T21:53:08.722Z,5.20
2023-02-14T21:55:45.850Z,4.70
2023-02-14T21:58:18.713Z,4.20
2023-02-14T22:00:51.512Z,4.70
2023-02-14T22:03:24.539Z,4.60
2023-02-14T22:06:03.270Z,4.80
2023-02-14T22:08:36.203Z,4.10
2023-02-14T22:11:09.727Z,4.30
2023-02-14T22:13:43.148Z,5.00
2023-02-14T22:16:17.036Z,4.00
2023-02-14T22:18:50.780Z,4.40
2023-02-14T22:21:25.576Z,4.20
2023-02-14T22:23:58.336Z,4.50
2023-02-14T22:26:34.038Z,3.30
2023-02-14T22:29:07.519Z,3.70
2023-02-14T22:31:42.375Z,4.40
2023-02-14T22:34:17.995Z,4.20
2023-02-14T22:36:51.472Z,4.60
2023-02-14T22:39:24.791Z,4.20
2023-02-14T22:41:58.642Z,4.10
2023-02-14T22:44:31.703Z,3.60
2023-02-14T22:47:05.396Z,4.00
2023-02-14T22:49:38.313Z,4.30
2023-02-14T22:52:11.153Z,3.90
2023-02-14T22:54:44.011Z,4.10
2023-02-14T22:57:19.620Z,4.10
2023-02-14T22:59:53.565Z,4.00
2023-02-14T23:02:26.673Z,4.10
2023-02-14T23:04:59.504Z,3.90
2023-02-14T23:07:32.479Z,3.40
2023-02-14T23:10:05.321Z,4.70
2023-02-14T23:12:56.140Z,4.30
2023-02-14T23:15:46.998Z,4.60
2023-02-14T23:18:36.916Z,4.30
2023-02-14T23:21:32.649Z,4.20
2023-02-14T23:24:05.757Z,3.80
2023-02-14T23:26:38.889Z,3.70
2023-02-14T23:29:12.127Z,3.80
2023-02-14T23:31:45.052Z,4.70
2023-02-14T23:34:20.353Z,4.10
2023-02-14T23:36:53.733Z,3.90
2023-02-14T23:39:26.451Z,4.10
2023-02-14T23:41:59.482Z,3.80
2023-02-14T23:44:33.409Z,4.10
2023-02-14T23:47:07.109Z,3.90
2023-02-14T23:49:40.665Z,3.60
2023-02-14T23:52:13.933Z,4.30
2023-02-14T23:54:47.271Z,4.60
2023-02-14T23:57:20.556Z,4.50
2023-02-14T23:59:53.390Z,3.50
